Time;durP1;ratioP1;P1;durP2;ratioP2;P2;SDS_P1;SDS_P2;PMS_P1;PMS_P2;Temp;Humidity;BMP_temperature;BMP_pressure;BME280_temperature;BME280_humidity;BME280_pressure;Samples;Min_cycle;Max_cycle;Signal;HPM_P1;HPM_P2
2023/09/08 00:00:57;;;;;;;1999.90;999.90;;;14.50;85.80;;;;;;5080837;28;20488;-72
2023/09/08 00:03:23;;;;;;;1999.90;999.90;;;14.50;85.70;;;;;;5084204;28;20714;-73
2023/09/08 00:05:48;;;;;;;1999.90;999.90;;;14.40;85.70;;;;;;5086122;28;20046;-73
2023/09/08 00:08:14;;;;;;;1999.90;999.90;;;14.40;85.80;;;;;;5081786;28;20111;-73
2023/09/08 00:10:40;;;;;;;1999.90;999.90;;;14.40;85.50;;;;;;5083325;28;20131;-72
2023/09/08 00:13:06;;;;;;;1999.90;999.90;;;14.20;85.20;;;;;;5086602;28;21991;-72
2023/09/08 00:15:34;;;;;;;1999.90;999.90;;;14.10;85.10;;;;;;5085783;28;20056;-72
2023/09/08 00:18:00;;;;;;;1999.90;999.90;;;14.00;85.40;;;;;;5089894;28;20032;-71
2023/09/08 00:20:26;;;;;;;1999.90;999.90;;;13.90;85.80;;;;;;5090542;28;20425;-72
2023/09/08 00:22:52;;;;;;;1999.90;999.90;;;13.80;86.10;;;;;;5086906;28;20032;-72
2023/09/08 00:25:18;;;;;;;1999.90;999.90;;;13.80;86.30;;;;;;5089551;28;20042;-73
2023/09/08 00:27:43;;;;;;;1999.90;999.90;;;13.80;86.70;;;;;;5086176;28;20420;-72
2023/09/08 00:30:10;;;;;;;1999.90;999.90;;;13.80;86.60;;;;;;5087924;28;20059;-73
2023/09/08 00:32:36;;;;;;;1999.90;999.90;;;13.70;86.70;;;;;;5087054;28;20081;-72
2023/09/08 00:35:01;;;;;;;1999.90;999.90;;;13.80;86.90;;;;;;5085827;28;20032;-73
2023/09/08 00:37:27;;;;;;;1999.90;999.90;;;13.90;86.80;;;;;;5089139;28;20028;-72
2023/09/08 00:39:53;;;;;;;1999.90;999.90;;;13.80;86.40;;;;;;5087410;28;20040;-73
2023/09/08 00:42:18;;;;;;;1999.90;999.90;;;13.80;86.50;;;;;;5086857;28;20074;-72
2023/09/08 00:44:44;;;;;;;1999.90;999.90;;;13.70;86.10;;;;;;5087130;28;20031;-72
2023/09/08 00:47:10;;;;;;;1999.90;999.90;;;13.70;86.00;;;;;;5085651;28;20482;-71
2023/09/08 00:49:35;;;;;;;1999.90;999.90;;;13.60;85.90;;;;;;5085971;28;20076;-72
2023/09/08 00:52:01;;;;;;;1999.90;999.90;;;13.60;86.10;;;;;;5089824;28;20032;-72
2023/09/08 00:54:27;;;;;;;1999.90;999.90;;;13.40;86.20;;;;;;5088164;28;20059;-73
2023/09/08 00:56:57;;;;;;;1999.90;999.90;;;13.40;86.50;;;;;;5089452;28;20123;-73
2023/09/08 00:59:23;;;;;;;1999.90;999.90;;;13.40;86.70;;;;;;5090308;28;20032;-72
2023/09/08 01:01:48;;;;;;;1999.90;999.90;;;13.40;86.80;;;;;;5086259;28;20478;-72
2023/09/08 01:04:14;;;;;;;1999.90;999.90;;;13.40;86.70;;;;;;5091123;28;20082;-71
2023/09/08 01:06:40;;;;;;;1999.90;999.90;;;13.40;86.80;;;;;;5085923;28;20036;-71
2023/09/08 01:09:06;;;;;;;1999.90;999.90;;;13.40;86.50;;;;;;5081988;28;20127;-71
2023/09/08 01:11:32;;;;;;;1999.90;999.90;;;13.30;86.40;;;;;;5080672;28;20352;-73
2023/09/08 01:13:57;;;;;;;1999.90;999.90;;;13.30;86.50;;;;;;5088167;28;20028;-73
2023/09/08 01:16:23;;;;;;;1999.90;999.90;;;13.30;86.60;;;;;;5083584;28;20060;-73
2023/09/08 01:18:50;;;;;;;1999.90;999.90;;;13.30;86.30;;;;;;5085707;28;20028;-73
2023/09/08 01:21:24;;;;;;;1999.90;999.90;;;13.20;86.70;;;;;;5086334;28;20063;-73
2023/09/08 01:23:59;;;;;;;1999.90;999.90;;;13.30;86.90;;;;;;5087805;28;20035;-72
2023/09/08 01:26:31;;;;;;;1999.90;999.90;;;13.30;87.00;;;;;;5085248;28;20401;-72
2023/09/08 01:28:58;;;;;;;1999.90;999.90;;;13.20;88.00;;;;;;5087201;28;20468;-72
2023/09/08 01:31:24;;;;;;;1999.90;999.90;;;13.30;88.60;;;;;;5085977;28;20135;-72
2023/09/08 01:33:50;;;;;;;1999.90;999.90;;;13.30;88.20;;;;;;5087594;28;20566;-73
2023/09/08 01:36:16;;;;;;;1999.90;999.90;;;13.30;88.50;;;;;;5087180;28;20085;-73
2023/09/08 01:38:42;;;;;;;1999.90;999.90;;;13.30;88.60;;;;;;5085135;28;20480;-73
2023/09/08 01:41:07;;;;;;;1999.90;999.90;;;13.30;88.40;;;;;;5084302;28;20028;-72
2023/09/08 01:43:33;;;;;;;1999.90;999.90;;;13.30;88.40;;;;;;5079537;28;20029;-72
2023/09/08 01:45:59;;;;;;;1999.90;999.90;;;13.30;88.10;;;;;;5065753;28;20386;-72
2023/09/08 01:48:24;;;;;;;1999.90;999.90;;;13.20;88.00;;;;;;5088876;28;20420;-72
2023/09/08 01:50:50;;;;;;;1999.90;999.90;;;13.20;88.00;;;;;;5087409;28;20032;-72
2023/09/08 01:53:16;;;;;;;1999.90;999.90;;;13.20;87.60;;;;;;5085661;28;20482;-73
2023/09/08 01:55:41;;;;;;;1999.90;999.90;;;13.10;87.00;;;;;;5085980;28;20139;-73
2023/09/08 01:58:07;;;;;;;1999.90;999.90;;;13.10;87.30;;;;;;5087751;28;20054;-72
2023/09/08 02:00:32;;;;;;;1999.90;999.90;;;13.10;87.40;;;;;;5086729;28;20036;-72
2023/09/08 02:03:02;;;;;;;1999.90;999.90;;;13.10;87.50;;;;;;5085566;28;20032;-72
2023/09/08 02:05:28;;;;;;;1999.90;999.90;;;13.10;87.40;;;;;;5084920;28;20082;-72
2023/09/08 02:07:55;;;;;;;1999.90;999.90;;;13.00;87.50;;;;;;5085174;28;20028;-72
2023/09/08 02:10:21;;;;;;;1999.90;999.90;;;12.90;87.70;;;;;;5085123;28;20111;-72
2023/09/08 02:12:46;;;;;;;1999.90;999.90;;;12.80;87.80;;;;;;5085535;28;20533;-71
2023/09/08 02:15:12;;;;;;;1999.90;999.90;;;12.90;88.60;;;;;;5086856;28;20359;-72
2023/09/08 02:17:38;;;;;;;1999.90;999.90;;;12.90;88.80;;;;;;5084177;28;20040;-73
2023/09/08 02:20:04;;;;;;;1999.90;999.90;;;12.90;88.70;;;;;;5085857;28;20039;-73
2023/09/08 02:22:29;;;;;;;1999.90;999.90;;;12.80;88.40;;;;;;5086071;28;20043;-73
2023/09/08 02:24:56;;;;;;;1999.90;999.90;;;12.70;88.30;;;;;;5083498;28;20040;-71
2023/09/08 02:27:22;;;;;;;1999.90;999.90;;;12.80;88.30;;;;;;5085257;28;20046;-72
2023/09/08 02:29:48;;;;;;;1999.90;999.90;;;12.80;88.60;;;;;;5083440;28;20036;-72
2023/09/08 02:32:14;;;;;;;1999.90;999.90;;;12.80;88.50;;;;;;5082571;28;20037;-73
2023/09/08 02:34:42;;;;;;;1999.90;999.90;;;12.70;88.20;;;;;;5085283;28;20494;-72
2023/09/08 02:37:08;;;;;;;1999.90;999.90;;;12.70;88.20;;;;;;5081271;28;20064;-72
2023/09/08 02:39:33;;;;;;;1999.90;999.90;;;12.70;88.40;;;;;;5085771;28;20064;-72
2023/09/08 02:41:59;;;;;;;1999.90;999.90;;;12.60;88.20;;;;;;5084484;28;20799;-72
2023/09/08 02:44:26;;;;;;;1999.90;999.90;;;12.60;88.50;;;;;;5083932;28;20093;-72
2023/09/08 02:46:52;;;;;;;1999.90;999.90;;;12.50;88.30;;;;;;5081346;28;20037;-73
2023/09/08 02:49:18;;;;;;;1999.90;999.90;;;12.50;88.30;;;;;;5081139;28;20047;-73
2023/09/08 02:51:43;;;;;;;1999.90;999.90;;;12.60;88.40;;;;;;5082784;28;20032;-72
2023/09/08 02:57:31;;;;;;;1999.90;999.90;;;12.40;88.30;;;;;;5082243;28;20081;-72
2023/09/08 02:59:58;;;;;;;1999.90;999.90;;;12.50;88.90;;;;;;5081326;28;20085;-72
2023/09/08 03:02:26;;;;;;;1999.90;999.90;;;12.50;88.80;;;;;;5080044;28;20436;-72
2023/09/08 03:04:52;;;;;;;1999.90;999.90;;;12.50;88.60;;;;;;5086974;28;20032;-72
2023/09/08 03:07:17;;;;;;;1999.90;999.90;;;12.50;88.50;;;;;;5086282;28;20047;-71
2023/09/08 03:09:43;;;;;;;1999.90;999.90;;;12.40;88.40;;;;;;5085968;28;20028;-72
2023/09/08 03:12:09;;;;;;;1999.90;999.90;;;12.40;88.40;;;;;;5081117;28;20375;-72
2023/09/08 03:14:35;;;;;;;1999.90;999.90;;;12.40;88.70;;;;;;5084604;28;20111;-72
2023/09/08 03:17:00;;;;;;;1999.90;999.90;;;12.40;88.90;;;;;;5085047;28;20059;-72
2023/09/08 03:19:26;;;;;;;1999.90;999.90;;;12.50;89.00;;;;;;5083996;28;20040;-72
2023/09/08 03:21:52;;;;;;;1999.90;999.90;;;12.40;89.30;;;;;;5084203;28;20036;-72
2023/09/08 03:24:17;;;;;;;1999.90;999.90;;;12.50;89.20;;;;;;5082666;28;20120;-72
2023/09/08 03:26:43;;;;;;;1999.90;999.90;;;12.40;89.10;;;;;;5085257;28;20036;-73
2023/09/08 03:29:09;;;;;;;1999.90;999.90;;;12.30;88.90;;;;;;5086932;28;20536;-73
2023/09/08 03:31:34;;;;;;;1999.90;999.90;;;12.40;89.30;;;;;;5080950;28;20101;-71
2023/09/08 03:34:00;;;;;;;1999.90;999.90;;;12.40;89.00;;;;;;5081670;28;20028;-72
2023/09/08 03:36:26;;;;;;;1999.90;999.90;;;12.40;88.90;;;;;;5087090;28;20032;-72
2023/09/08 03:38:51;;;;;;;1999.90;999.90;;;12.30;89.00;;;;;;5080411;28;20390;-72
2023/09/08 03:41:17;;;;;;;1999.90;999.90;;;12.30;89.00;;;;;;5080097;28;20173;-72
2023/09/08 03:43:43;;;;;;;1999.90;999.90;;;12.30;89.20;;;;;;5085093;28;20040;-72
2023/09/08 03:46:08;;;;;;;1999.90;999.90;;;12.30;89.20;;;;;;5081532;28;20093;-72
2023/09/08 03:48:34;;;;;;;1999.90;999.90;;;12.30;89.30;;;;;;5079888;28;20028;-72
2023/09/08 03:51:00;;;;;;;1999.90;999.90;;;12.30;89.60;;;;;;5090959;28;20466;-73
2023/09/08 03:53:26;;;;;;;1999.90;999.90;;;12.20;89.70;;;;;;5088374;28;20123;-71
2023/09/08 03:55:51;;;;;;;1999.90;999.90;;;12.20;89.80;;;;;;5086867;28;20063;-72
2023/09/08 03:58:17;;;;;;;1999.90;999.90;;;12.30;89.90;;;;;;5087568;28;20261;-71
2023/09/08 04:00:43;;;;;;;1999.90;999.90;;;12.20;89.50;;;;;;5086868;28;20024;-72
2023/09/08 04:03:08;;;;;;;1999.90;999.90;;;12.20;89.50;;;;;;5089440;28;20032;-72
2023/09/08 04:05:34;;;;;;;1999.90;999.90;;;12.10;89.50;;;;;;5081038;28;20057;-73
2023/09/08 04:08:01;;;;;;;1999.90;999.90;;;12.10;89.30;;;;;;5085664;28;20028;-73
2023/09/08 04:10:26;;;;;;;1999.90;999.90;;;12.10;89.40;;;;;;5087179;28;20497;-72
2023/09/08 04:12:52;;;;;;;1999.90;999.90;;;12.10;89.60;;;;;;5088872;28;20028;-72
2023/09/08 04:15:18;;;;;;;1999.90;999.90;;;12.20;89.80;;;;;;5089051;28;20036;-72
2023/09/08 04:17:43;;;;;;;1999.90;999.90;;;12.20;89.60;;;;;;5086924;28;20021;-72
2023/09/08 04:20:10;;;;;;;1999.90;999.90;;;12.00;89.10;;;;;;5088374;28;20038;-72
2023/09/08 04:22:35;;;;;;;1999.90;999.90;;;12.00;89.70;;;;;;5089138;28;20031;-72
2023/09/08 04:25:02;;;;;;;1999.90;999.90;;;12.00;90.10;;;;;;5081141;28;20036;-72
2023/09/08 04:27:27;;;;;;;1999.90;999.90;;;12.00;90.10;;;;;;5087520;28;20035;-72
2023/09/08 04:29:53;;;;;;;1999.90;999.90;;;12.00;90.00;;;;;;5088748;28;20371;-72
2023/09/08 04:32:19;;;;;;;1999.90;999.90;;;12.10;90.00;;;;;;5086910;28;20060;-72
2023/09/08 04:34:44;;;;;;;1999.90;999.90;;;12.10;90.10;;;;;;5084009;28;20517;-71
2023/09/08 04:37:10;;;;;;;1999.90;999.90;;;12.00;89.90;;;;;;5089016;28;20063;-72
2023/09/08 04:39:36;;;;;;;1999.90;999.90;;;12.00;90.00;;;;;;5083612;28;20032;-72
2023/09/08 04:42:03;;;;;;;1999.90;999.90;;;12.00;90.00;;;;;;5086106;28;20067;-72
2023/09/08 04:44:28;;;;;;;1999.90;999.90;;;12.10;90.00;;;;;;5083830;28;20064;-73
2023/09/08 04:46:54;;;;;;;1999.90;999.90;;;12.10;90.10;;;;;;5085077;28;20587;-72
2023/09/08 04:49:20;;;;;;;1999.90;999.90;;;12.20;90.30;;;;;;5079143;28;20032;-73
2023/09/08 04:51:46;;;;;;;1999.90;999.90;;;12.30;90.80;;;;;;5088219;28;20067;-73
2023/09/08 04:54:11;;;;;;;1999.90;999.90;;;12.40;91.00;;;;;;5083858;28;20405;-72
2023/09/08 04:56:39;;;;;;;1999.90;999.90;;;12.50;91.20;;;;;;5087591;28;20035;-71
2023/09/08 04:59:05;;;;;;;1999.90;999.90;;;12.50;91.30;;;;;;5083749;28;20032;-72
2023/09/08 05:01:32;;;;;;;1999.90;999.90;;;12.60;91.30;;;;;;5085779;28;20482;-72
2023/09/08 05:04:01;;;;;;;1999.90;999.90;;;12.60;91.30;;;;;;5084778;28;20060;-72
2023/09/08 05:06:26;;;;;;;1999.90;999.90;;;12.70;91.20;;;;;;5086656;28;20495;-72
2023/09/08 05:08:52;;;;;;;1999.90;999.90;;;12.70;91.20;;;;;;5084387;28;20043;-73
2023/09/08 05:11:19;;;;;;;1999.90;999.90;;;12.80;91.20;;;;;;5082754;28;20428;-72
2023/09/08 05:13:46;;;;;;;1999.90;999.90;;;12.90;91.20;;;;;;5083793;28;20059;-72
2023/09/08 05:16:12;;;;;;;1999.90;999.90;;;12.90;91.20;;;;;;5087228;28;20031;-71
2023/09/08 05:18:40;;;;;;;1999.90;999.90;;;12.90;91.10;;;;;;5083506;28;20138;-73
2023/09/08 05:21:07;;;;;;;1999.90;999.90;;;12.90;91.10;;;;;;5086939;28;20059;-73
2023/09/08 05:23:33;;;;;;;1999.90;999.90;;;13.00;91.00;;;;;;5088534;28;20064;-73
2023/09/08 05:26:00;;;;;;;1999.90;999.90;;;13.00;90.90;;;;;;5079276;28;20643;-72
2023/09/08 05:28:26;;;;;;;1999.90;999.90;;;13.00;90.70;;;;;;5086546;28;20031;-72
2023/09/08 05:30:52;;;;;;;1999.90;999.90;;;13.10;90.80;;;;;;5085252;28;20031;-72
2023/09/08 05:33:18;;;;;;;1999.90;999.90;;;13.20;90.80;;;;;;5087310;28;20047;-73
2023/09/08 05:35:45;;;;;;;1999.90;999.90;;;13.30;90.80;;;;;;5085934;28;20028;-76
2023/09/08 05:38:11;;;;;;;1999.90;999.90;;;13.40;90.60;;;;;;5088625;28;20020;-78
2023/09/08 05:40:37;;;;;;;1999.90;999.90;;;13.40;90.50;;;;;;5083364;28;20030;-75
2023/09/08 05:43:03;;;;;;;1999.90;999.90;;;13.40;90.40;;;;;;5086636;28;20097;-78
2023/09/08 05:45:31;;;;;;;1999.90;999.90;;;13.40;90.40;;;;;;5081671;28;20036;-77
2023/09/08 05:47:57;;;;;;;1999.90;999.90;;;13.50;90.90;;;;;;5082869;28;20120;-79
2023/09/08 05:50:22;;;;;;;1999.90;999.90;;;13.60;90.50;;;;;;5083608;28;20118;-77
2023/09/08 05:52:48;;;;;;;1999.90;999.90;;;13.70;90.30;;;;;;5084291;28;20115;-79
2023/09/08 05:55:14;;;;;;;1999.90;999.90;;;13.80;90.10;;;;;;5086131;28;20093;-78
2023/09/08 05:57:40;;;;;;;1999.90;999.90;;;13.90;90.20;;;;;;5085751;28;20137;-78
2023/09/08 06:00:07;;;;;;;1999.90;999.90;;;14.00;90.10;;;;;;5086739;28;20028;-77
2023/09/08 06:02:32;;;;;;;1999.90;999.90;;;14.00;89.80;;;;;;5083229;28;20129;-78
2023/09/08 06:04:58;;;;;;;1999.90;999.90;;;14.10;89.70;;;;;;5087729;28;20051;-77
2023/09/08 06:07:24;;;;;;;1999.90;999.90;;;14.10;90.20;;;;;;5083272;28;20147;-77
2023/09/08 06:09:49;;;;;;;1999.90;999.90;;;14.20;90.00;;;;;;5083357;28;20036;-78
2023/09/08 06:12:15;;;;;;;1999.90;999.90;;;14.20;90.20;;;;;;5082636;28;20059;-78
2023/09/08 06:14:41;;;;;;;1999.90;999.90;;;14.20;90.20;;;;;;5081533;28;20372;-77
2023/09/08 06:17:06;;;;;;;1999.90;999.90;;;14.20;90.40;;;;;;5084567;28;20492;-76
2023/09/08 06:19:32;;;;;;;1999.90;999.90;;;14.40;89.60;;;;;;5081935;28;20032;-77
2023/09/08 06:21:58;;;;;;;1999.90;999.90;;;14.50;88.90;;;;;;5085628;28;20032;-77
2023/09/08 06:24:24;;;;;;;1999.90;999.90;;;14.60;88.60;;;;;;5081761;28;20103;-77
2023/09/08 06:26:50;;;;;;;1999.90;999.90;;;14.70;88.50;;;;;;5083579;28;20029;-77
2023/09/08 06:29:15;;;;;;;1999.90;999.90;;;14.70;88.20;;;;;;5084959;28;20383;-79
2023/09/08 06:31:41;;;;;;;1999.90;999.90;;;14.70;88.20;;;;;;5082212;28;20032;-77
2023/09/08 06:34:07;;;;;;;1999.90;999.90;;;14.80;88.10;;;;;;5083908;28;20036;-77
2023/09/08 06:36:32;;;;;;;1999.90;999.90;;;14.80;88.20;;;;;;5084587;28;20019;-77
2023/09/08 06:38:59;;;;;;;1999.90;999.90;;;14.90;87.00;;;;;;5084284;28;20100;-78
2023/09/08 06:41:27;;;;;;;1999.90;999.90;;;14.90;86.50;;;;;;5083965;28;20028;-77
2023/09/08 06:43:52;;;;;;;1999.90;999.90;;;15.00;85.40;;;;;;5086515;28;20107;-78
2023/09/08 06:46:18;;;;;;;1999.90;999.90;;;15.10;85.60;;;;;;5083183;28;20490;-77
2023/09/08 06:48:43;;;;;;;1999.90;999.90;;;15.30;84.20;;;;;;5085722;28;20032;-75
2023/09/08 06:51:09;;;;;;;1999.90;999.90;;;15.30;84.00;;;;;;5086682;28;20424;-77
2023/09/08 06:53:36;;;;;;;1999.90;999.90;;;15.40;83.50;;;;;;5082457;28;20824;-78
2023/09/08 06:56:01;;;;;;;1999.90;999.90;;;15.50;83.50;;;;;;5086576;28;20702;-77
2023/09/08 06:58:27;;;;;;;1999.90;999.90;;;15.50;84.00;;;;;;5085193;28;20032;-77
2023/09/08 07:00:54;;;;;;;1999.90;999.90;;;15.60;83.50;;;;;;5085304;28;20043;-78
2023/09/08 07:03:22;;;;;;;1999.90;999.90;;;15.70;84.00;;;;;;5081757;28;20038;-76
2023/09/08 07:05:49;;;;;;;1999.90;999.90;;;15.80;84.20;;;;;;5078911;28;20624;-78
2023/09/08 07:08:15;;;;;;;1999.90;999.90;;;15.80;83.90;;;;;;5086582;28;20028;-77
2023/09/08 07:10:40;;;;;;;1999.90;999.90;;;15.90;83.40;;;;;;5085172;28;20049;-77
2023/09/08 07:13:06;;;;;;;1999.90;999.90;;;16.10;83.50;;;;;;5085902;28;20136;-77
2023/09/08 07:15:32;;;;;;;1999.90;999.90;;;16.20;82.60;;;;;;5082760;28;20035;-77
2023/09/08 07:17:57;;;;;;;1999.90;999.90;;;16.20;82.90;;;;;;5085553;28;20021;-76
2023/09/08 07:20:23;;;;;;;1999.90;999.90;;;16.40;81.50;;;;;;5082739;28;20051;-76
2023/09/08 07:22:49;;;;;;;1999.90;999.90;;;16.60;81.10;;;;;;5083543;28;20025;-77
2023/09/08 07:25:15;;;;;;;1999.90;999.90;;;16.80;79.70;;;;;;5085009;28;20053;-75
2023/09/08 07:27:40;;;;;;;1999.90;999.90;;;16.80;80.20;;;;;;5083114;28;20475;-77
2023/09/08 07:30:07;;;;;;;1999.90;999.90;;;16.90;79.60;;;;;;5078468;28;20508;-77
2023/09/08 07:32:32;;;;;;;1999.90;999.90;;;17.00;79.90;;;;;;5077425;28;20444;-78
2023/09/08 07:34:58;;;;;;;1999.90;999.90;;;17.20;80.10;;;;;;5079596;28;20086;-75
2023/09/08 07:37:24;;;;;;;1999.90;999.90;;;17.30;79.00;;;;;;5082623;28;20073;-75
2023/09/08 07:39:52;;;;;;;1999.90;999.90;;;17.30;79.00;;;;;;5082438;28;20483;-78
2023/09/08 07:42:18;;;;;;;1999.90;999.90;;;17.50;79.50;;;;;;5083302;28;20063;-77
2023/09/08 07:44:45;;;;;;;1999.90;999.90;;;17.50;77.80;;;;;;5084052;28;20060;-77
2023/09/08 07:47:11;;;;;;;1999.90;999.90;;;17.50;77.50;;;;;;5082496;28;20553;-77
2023/09/08 07:49:37;;;;;;;1999.90;999.90;;;17.60;76.20;;;;;;5081869;28;20070;-76
2023/09/08 07:52:04;;;;;;;1999.90;999.90;;;17.70;76.70;;;;;;5087107;28;20383;-76
2023/09/08 07:54:30;;;;;;;1999.90;999.90;;;17.70;77.10;;;;;;5081213;28;20055;-76
2023/09/08 07:56:56;;;;;;;1999.90;999.90;;;17.80;76.50;;;;;;5081711;28;20108;-76
2023/09/08 07:59:22;;;;;;;1999.90;999.90;;;18.10;75.70;;;;;;5079598;28;20131;-76
2023/09/08 08:01:47;;;;;;;1999.90;999.90;;;18.30;76.40;;;;;;5084669;28;20042;-76
2023/09/08 08:04:13;;;;;;;1999.90;999.90;;;18.30;75.10;;;;;;5083380;28;20505;-77
2023/09/08 08:06:39;;;;;;;1999.90;999.90;;;18.70;75.00;;;;;;5080541;28;20032;-76
2023/09/08 08:09:04;;;;;;;1999.90;999.90;;;18.90;74.10;;;;;;5084635;28;20032;-77
2023/09/08 08:11:30;;;;;;;1999.90;999.90;;;19.10;73.10;;;;;;5084674;28;20123;-76
2023/09/08 08:13:58;;;;;;;1999.90;999.90;;;19.10;72.30;;;;;;5084540;28;20086;-77
2023/09/08 08:16:24;;;;;;;1999.90;999.90;;;19.40;72.50;;;;;;5082971;28;20039;-76
2023/09/08 08:18:50;;;;;;;1999.90;999.90;;;19.40;72.80;;;;;;5083254;28;20028;-76
2023/09/08 08:21:16;;;;;;;1999.90;999.90;;;19.60;73.50;;;;;;5080398;28;20033;-76
2023/09/08 08:23:42;;;;;;;1999.90;999.90;;;19.70;72.50;;;;;;5083902;28;20040;-76
2023/09/08 08:26:07;;;;;;;1999.90;999.90;;;19.70;73.50;;;;;;5083091;28;20520;-76
2023/09/08 08:28:33;;;;;;;1999.90;999.90;;;19.70;73.70;;;;;;5082752;28;20036;-74
2023/09/08 08:31:03;;;;;;;1999.90;999.90;;;20.00;71.00;;;;;;5086872;28;20059;-74
2023/09/08 08:33:29;;;;;;;1999.90;999.90;;;20.30;71.30;;;;;;5078341;28;20124;-73
2023/09/08 08:35:55;;;;;;;1999.90;999.90;;;20.50;71.00;;;;;;5087411;28;20161;-73
2023/09/08 08:38:20;;;;;;;1999.90;999.90;;;20.70;70.60;;;;;;5089342;28;20122;-74
2023/09/08 08:40:46;;;;;;;1999.90;999.90;;;20.70;71.00;;;;;;5082530;28;20048;-74
2023/09/08 08:43:12;;;;;;;1999.90;999.90;;;20.80;70.30;;;;;;5087715;28;20097;-73
2023/09/08 08:45:39;;;;;;;1999.90;999.90;;;21.10;68.90;;;;;;5082866;28;20398;-73
2023/09/08 08:48:05;;;;;;;1999.90;999.90;;;21.20;69.40;;;;;;5091062;28;20550;-74
2023/09/08 08:50:32;;;;;;;1999.90;999.90;;;21.40;68.60;;;;;;5087708;28;20036;-74
2023/09/08 08:53:02;;;;;;;1999.90;999.90;;;21.50;68.10;;;;;;5084617;28;20028;-74
2023/09/08 08:55:30;;;;;;;1999.90;999.90;;;21.50;68.30;;;;;;5081687;28;20051;-74
2023/09/08 08:58:03;;;;;;;1999.90;999.90;;;21.80;67.60;;;;;;5088221;28;20033;-74
2023/09/08 09:00:29;;;;;;;1999.90;999.90;;;21.80;67.90;;;;;;5082962;28;20032;-74
2023/09/08 09:02:57;;;;;;;1999.90;999.90;;;21.90;66.30;;;;;;5085847;28;20118;-74
2023/09/08 09:05:24;;;;;;;1999.90;999.90;;;22.20;66.10;;;;;;5085873;28;20058;-74
2023/09/08 09:07:51;;;;;;;1999.90;999.90;;;22.50;66.00;;;;;;5082607;28;20037;-74
2023/09/08 09:10:17;;;;;;;1999.90;999.90;;;22.40;63.50;;;;;;5087157;28;20039;-74
2023/09/08 09:12:43;;;;;;;1999.90;999.90;;;22.60;61.80;;;;;;5086288;28;20036;-74
2023/09/08 09:15:09;;;;;;;1999.90;999.90;;;22.80;62.30;;;;;;5084670;28;20415;-74
2023/09/08 09:17:35;;;;;;;1999.90;999.90;;;23.10;62.30;;;;;;5086038;28;20470;-74
2023/09/08 09:20:20;;;;;;;1999.90;999.90;;;23.20;61.50;;;;;;5084621;28;20041;-74
2023/09/08 09:22:46;;;;;;;1999.90;999.90;;;23.20;60.70;;;;;;5086530;28;20028;-74
2023/09/08 09:25:29;;;;;;;1999.90;999.90;;;23.30;60.30;;;;;;5087586;28;20107;-73
2023/09/08 09:27:57;;;;;;;1999.90;999.90;;;23.60;60.90;;;;;;5083240;28;20340;-74
2023/09/08 09:30:24;;;;;;;1999.90;999.90;;;23.60;60.80;;;;;;5082426;28;20036;-74
2023/09/08 09:33:04;;;;;;;1999.90;999.90;;;23.80;60.50;;;;;;5088451;28;20028;-73
2023/09/08 09:35:42;;;;;;;1999.90;999.90;;;23.80;59.50;;;;;;5083213;28;20028;-74
2023/09/08 09:38:09;;;;;;;1999.90;999.90;;;24.10;60.00;;;;;;5087320;28;20266;-74
2023/09/08 09:40:35;;;;;;;1999.90;999.90;;;24.60;59.60;;;;;;5081173;28;20059;-74
2023/09/08 09:43:00;;;;;;;1999.90;999.90;;;25.10;58.60;;;;;;5086900;28;20027;-74
2023/09/08 09:45:26;;;;;;;1999.90;999.90;;;25.30;59.50;;;;;;5086787;28;20032;-74
2023/09/08 09:47:52;;;;;;;1999.90;999.90;;;25.00;58.70;;;;;;5086005;28;20071;-74
2023/09/08 09:50:32;;;;;;;1999.90;999.90;;;25.20;60.20;;;;;;5083922;28;20036;-74
2023/09/08 09:53:00;;;;;;;;;;;25.60;55.80;;;;;;5083053;28;20047;-73
2023/09/08 09:55:26;;;;;;;1999.90;999.90;;;25.40;57.70;;;;;;5081694;28;19920;-74
2023/09/08 09:57:58;;;;;;;1999.90;999.90;;;25.10;55.20;;;;;;5088243;28;20393;-74
2023/09/08 10:00:25;;;;;;;1999.90;999.90;;;25.50;55.20;;;;;;5086053;28;20027;-74
2023/09/08 10:02:53;;;;;;;1999.90;999.90;;;26.00;54.40;;;;;;5083090;28;20074;-74
2023/09/08 10:05:19;;;;;;;1999.90;999.90;;;25.50;54.70;;;;;;5083862;28;20043;-74
2023/09/08 10:07:50;;;;;;;1999.90;999.90;;;25.60;56.10;;;;;;5088594;28;20043;-74
2023/09/08 10:10:17;;;;;;;1999.90;999.90;;;25.90;55.00;;;;;;5082342;28;20024;-76
2023/09/08 10:12:52;;;;;;;1999.90;999.90;;;26.10;57.00;;;;;;5078679;28;20409;-76
2023/09/08 10:15:23;;;;;;;1999.90;999.90;;;25.60;54.70;;;;;;5081461;28;20036;-77
2023/09/08 10:17:57;;;;;;;1999.90;999.90;;;25.90;54.40;;;;;;5084775;28;20036;-77
2023/09/08 10:20:28;;;;;;;1999.90;999.90;;;26.10;56.30;;;;;;5072976;28;20029;-77
2023/09/08 10:23:09;;;;;;;1999.90;999.90;;;26.60;55.40;;;;;;5078848;28;20036;-77
2023/09/08 10:25:39;;;;;;;1999.90;999.90;;;26.80;54.90;;;;;;5082568;28;20494;-77
2023/09/08 10:28:07;;;;;;;1999.90;999.90;;;26.80;55.20;;;;;;5084867;28;20057;-76
2023/09/08 10:30:34;;;;;;;1999.90;999.90;;;27.10;53.60;;;;;;5085610;28;20557;-76
2023/09/08 10:33:01;;;;;;;1999.90;999.90;;;27.20;52.40;;;;;;5084624;28;20057;-77
2023/09/08 10:35:27;;;;;;;1999.90;999.90;;;27.30;51.20;;;;;;5082535;28;20039;-77
2023/09/08 10:38:29;;;;;;;1999.90;999.90;;;27.70;51.70;;;;;;5083915;28;20037;-77
2023/09/08 10:41:17;;;;;;;1999.90;999.90;;;27.60;53.60;;;;;;5084313;28;20440;-76
2023/09/08 10:43:57;;;;;;;1999.90;999.90;;;27.80;50.30;;;;;;5083429;28;20055;-77
2023/09/08 10:46:27;;;;;;;;;;;27.80;50.00;;;;;;5082655;28;20502;-77
2023/09/08 10:49:06;;;;;;;1999.90;999.90;;;28.10;48.70;;;;;;5081306;28;19912;-77
2023/09/08 10:51:33;;;;;;;1999.90;999.90;;;28.40;49.80;;;;;;5086533;28;20032;-77
2023/09/08 10:53:59;;;;;;;1999.90;999.90;;;28.80;48.40;;;;;;5082209;28;20133;-76
2023/09/08 10:56:51;;;;;;;1999.90;999.90;;;28.60;48.40;;;;;;5084150;28;20443;-77
2023/09/08 10:59:16;;;;;;;1999.90;999.90;;;28.50;49.60;;;;;;5080480;28;20584;-77
2023/09/08 11:01:42;;;;;;;1999.90;999.90;;;29.30;49.20;;;;;;5077646;28;20099;-77
2023/09/08 11:04:10;;;;;;;1999.90;999.90;;;29.80;45.30;;;;;;5086207;28;20031;-77
2023/09/08 11:06:37;;;;;;;1999.90;999.90;;;30.00;45.60;;;;;;5080771;28;20031;-76
2023/09/08 11:09:09;;;;;;;1999.90;999.90;;;30.10;44.90;;;;;;5081618;28;20058;-77
2023/09/08 11:11:36;;;;;;;1999.90;999.90;;;30.90;44.50;;;;;;5082214;28;20043;-77
2023/09/08 11:14:03;;;;;;;1999.90;999.90;;;31.50;38.60;;;;;;5082040;28;20074;-76
2023/09/08 11:16:31;;;;;;;1999.90;999.90;;;31.50;39.20;;;;;;5080981;28;20028;-77
2023/09/08 11:18:57;;;;;;;1999.90;999.90;;;30.90;40.50;;;;;;5078276;28;20028;-77
2023/09/08 11:21:23;;;;;;;1999.90;999.90;;;31.50;40.40;;;;;;5082253;28;20076;-77
2023/09/08 11:23:49;;;;;;;1999.90;999.90;;;31.40;42.00;;;;;;5085360;28;20027;-77
2023/09/08 11:26:16;;;;;;;1999.90;999.90;;;32.00;40.70;;;;;;5081127;28;20036;-77
2023/09/08 11:28:42;;;;;;;1999.90;999.90;;;33.10;36.50;;;;;;5083911;28;20446;-77
2023/09/08 11:31:08;;;;;;;1999.90;999.90;;;32.70;37.30;;;;;;5085345;28;20134;-77
2023/09/08 11:33:39;;;;;;;1999.90;999.90;;;33.30;36.30;;;;;;5081474;28;20038;-76
2023/09/08 11:36:15;;;;;;;1999.90;999.90;;;33.20;36.50;;;;;;5082036;28;20032;-77
2023/09/08 11:38:43;;;;;;;1999.90;999.90;;;32.90;34.60;;;;;;5082438;28;20385;-77
2023/09/08 11:41:09;;;;;;;1999.90;999.90;;;32.60;37.00;;;;;;5082499;28;20038;-76
2023/09/08 11:43:36;;;;;;;1999.90;999.90;;;31.90;37.70;;;;;;5086536;28;20025;-77
2023/09/08 11:46:02;;;;;;;1999.90;999.90;;;32.60;37.60;;;;;;5084836;28;20037;-77
2023/09/08 11:48:28;;;;;;;1999.90;999.90;;;32.10;39.60;;;;;;5081681;28;20036;-77
2023/09/08 11:50:54;;;;;;;1999.90;999.90;;;32.70;37.80;;;;;;5083606;28;20046;-77
2023/09/08 11:53:21;;;;;;;1999.90;999.90;;;32.50;36.80;;;;;;5086949;28;20056;-77
2023/09/08 11:55:48;;;;;;;1999.90;999.90;;;33.00;37.50;;;;;;5081816;28;20123;-77
2023/09/08 11:58:14;;;;;;;1999.90;999.90;;;32.70;36.30;;;;;;5086238;28;20032;-77
2023/09/08 12:00:40;;;;;;;1999.90;999.90;;;33.40;38.10;;;;;;5083373;28;20558;-77
2023/09/08 12:03:15;;;;;;;1999.90;999.90;;;33.30;36.50;;;;;;5084702;28;20082;-77